sensor_id;sensor_type;location;lat;lon;timestamp;P1;durP1;ratioP1;P2;durP2;ratioP2
72949;SDS011;64868;45.710;9.590;2023-04-03T00:01:20;7.95;;;3.13;;
72949;SDS011;64868;45.710;9.590;2023-04-03T00:03:52;9.70;;;3.13;;
72949;SDS011;64868;45.710;9.590;2023-04-03T00:06:25;9.10;;;3.00;;
72949;SDS011;64868;45.710;9.590;2023-04-03T00:08:58;6.60;;;2.80;;
72949;SDS011;64868;45.710;9.590;2023-04-03T00:11:28;7.53;;;3.22;;
72949;SDS011;64868;45.710;9.590;2023-04-03T00:14:00;8.07;;;3.28;;
72949;SDS011;64868;45.710;9.590;2023-04-03T00:16:33;7.82;;;3.17;;
72949;SDS011;64868;45.710;9.590;2023-04-03T00:19:03;7.15;;;3.13;;
72949;SDS011;64868;45.710;9.590;2023-04-03T00:21:36;6.68;;;2.78;;
72949;SDS011;64868;45.710;9.590;2023-04-03T00:24:07;7.47;;;3.10;;
72949;SDS011;64868;45.710;9.590;2023-04-03T00:26:40;6.45;;;2.70;;
72949;SDS011;64868;45.710;9.590;2023-04-03T00:29:12;6.90;;;2.92;;
72949;SDS011;64868;45.710;9.590;2023-04-03T00:31:42;7.20;;;2.83;;
72949;SDS011;64868;45.710;9.590;2023-04-03T00:34:15;7.05;;;3.08;;
72949;SDS011;64868;45.710;9.590;2023-04-03T00:36:48;6.82;;;2.88;;
72949;SDS011;64868;45.710;9.590;2023-04-03T00:39:20;6.82;;;2.88;;
72949;SDS011;64868;45.710;9.590;2023-04-03T00:41:53;7.32;;;2.78;;
72949;SDS011;64868;45.710;9.590;2023-04-03T00:47:08;6.10;;;2.38;;
72949;SDS011;64868;45.710;9.590;2023-04-03T00:49:37;5.80;;;2.30;;
72949;SDS011;64868;45.710;9.590;2023-04-03T00:52:09;5.88;;;2.08;;
72949;SDS011;64868;45.710;9.590;2023-04-03T00:54:46;7.25;;;2.25;;
72949;SDS011;64868;45.710;9.590;2023-04-03T00:57:22;6.90;;;2.63;;
72949;SDS011;64868;45.710;9.590;2023-04-03T00:59:55;6.15;;;2.42;;
72949;SDS011;64868;45.710;9.590;2023-04-03T01:02:31;6.95;;;2.75;;
72949;SDS011;64868;45.710;9.590;2023-04-03T01:05:03;5.65;;;2.35;;
72949;SDS011;64868;45.710;9.590;2023-04-03T01:07:37;7.28;;;2.45;;
72949;SDS011;64868;45.710;9.590;2023-04-03T01:10:11;5.40;;;2.10;;
72949;SDS011;64868;45.710;9.590;2023-04-03T01:12:45;8.32;;;2.30;;
72949;SDS011;64868;45.710;9.590;2023-04-03T01:15:26;6.45;;;2.45;;
72949;SDS011;64868;45.710;9.590;2023-04-03T01:17:57;5.40;;;2.05;;
72949;SDS011;64868;45.710;9.590;2023-04-03T01:20:36;5.22;;;2.20;;
72949;SDS011;64868;45.710;9.590;2023-04-03T01:23:16;5.95;;;2.63;;
72949;SDS011;64868;45.710;9.590;2023-04-03T01:25:49;6.38;;;2.50;;
72949;SDS011;64868;45.710;9.590;2023-04-03T01:28:25;6.20;;;2.20;;
72949;SDS011;64868;45.710;9.590;2023-04-03T01:34:07;5.05;;;1.95;;
72949;SDS011;64868;45.710;9.590;2023-04-03T01:36:37;5.57;;;1.80;;
72949;SDS011;64868;45.710;9.590;2023-04-03T01:39:10;5.65;;;1.90;;
72949;SDS011;64868;45.710;9.590;2023-04-03T01:41:40;7.70;;;2.00;;
72949;SDS011;64868;45.710;9.590;2023-04-03T01:44:09;5.78;;;2.00;;
72949;SDS011;64868;45.710;9.590;2023-04-03T01:46:37;5.50;;;1.92;;
72949;SDS011;64868;45.710;9.590;2023-04-03T01:49:09;5.75;;;1.70;;
72949;SDS011;64868;45.710;9.590;2023-04-03T01:51:39;4.68;;;1.63;;
72949;SDS011;64868;45.710;9.590;2023-04-03T01:54:07;6.10;;;2.00;;
72949;SDS011;64868;45.710;9.590;2023-04-03T01:56:40;4.75;;;1.60;;
72949;SDS011;64868;45.710;9.590;2023-04-03T01:59:12;4.45;;;1.65;;
72949;SDS011;64868;45.710;9.590;2023-04-03T02:01:45;4.38;;;1.77;;
72949;SDS011;64868;45.710;9.590;2023-04-03T02:04:12;4.65;;;1.42;;
72949;SDS011;64868;45.710;9.590;2023-04-03T02:06:45;5.30;;;1.52;;
72949;SDS011;64868;45.710;9.590;2023-04-03T02:09:18;6.80;;;1.92;;
72949;SDS011;64868;45.710;9.590;2023-04-03T02:11:48;4.72;;;1.38;;
72949;SDS011;64868;45.710;9.590;2023-04-03T02:14:18;4.53;;;1.50;;
72949;SDS011;64868;45.710;9.590;2023-04-03T02:16:50;2.95;;;1.20;;
72949;SDS011;64868;45.710;9.590;2023-04-03T02:19:23;4.00;;;1.40;;
72949;SDS011;64868;45.710;9.590;2023-04-03T02:21:53;5.22;;;1.55;;
72949;SDS011;64868;45.710;9.590;2023-04-03T02:24:23;4.40;;;1.30;;
72949;SDS011;64868;45.710;9.590;2023-04-03T02:26:56;4.07;;;1.40;;
72949;SDS011;64868;45.710;9.590;2023-04-03T02:29:26;4.60;;;1.48;;
72949;SDS011;64868;45.710;9.590;2023-04-03T02:31:59;5.10;;;1.30;;
72949;SDS011;64868;45.710;9.590;2023-04-03T02:34:31;5.63;;;1.42;;
72949;SDS011;64868;45.710;9.590;2023-04-03T02:37:04;4.50;;;1.50;;
72949;SDS011;64868;45.710;9.590;2023-04-03T02:39:37;5.28;;;1.27;;
72949;SDS011;64868;45.710;9.590;2023-04-03T02:42:09;3.92;;;1.38;;
72949;SDS011;64868;45.710;9.590;2023-04-03T02:44:42;4.80;;;2.00;;
72949;SDS011;64868;45.710;9.590;2023-04-03T02:47:14;4.50;;;1.33;;
72949;SDS011;64868;45.710;9.590;2023-04-03T02:49:47;5.18;;;1.40;;
72949;SDS011;64868;45.710;9.590;2023-04-03T02:52:20;4.00;;;1.40;;
72949;SDS011;64868;45.710;9.590;2023-04-03T02:54:51;4.32;;;1.20;;
72949;SDS011;64868;45.710;9.590;2023-04-03T02:57:21;4.10;;;1.05;;
72949;SDS011;64868;45.710;9.590;2023-04-03T02:59:51;4.20;;;1.58;;
72949;SDS011;64868;45.710;9.590;2023-04-03T03:02:21;4.63;;;1.58;;
72949;SDS011;64868;45.710;9.590;2023-04-03T03:04:51;3.75;;;1.00;;
72949;SDS011;64868;45.710;9.590;2023-04-03T03:07:21;5.00;;;1.15;;
72949;SDS011;64868;45.710;9.590;2023-04-03T03:09:49;3.45;;;1.00;;
72949;SDS011;64868;45.710;9.590;2023-04-03T03:12:19;3.72;;;1.17;;
72949;SDS011;64868;45.710;9.590;2023-04-03T03:14:52;5.07;;;1.40;;
72949;SDS011;64868;45.710;9.590;2023-04-03T03:17:24;3.63;;;1.17;;
72949;SDS011;64868;45.710;9.590;2023-04-03T03:19:52;4.68;;;1.35;;
72949;SDS011;64868;45.710;9.590;2023-04-03T03:22:18;3.42;;;0.98;;
72949;SDS011;64868;45.710;9.590;2023-04-03T03:24:51;3.80;;;0.82;;
72949;SDS011;64868;45.710;9.590;2023-04-03T03:27:18;3.45;;;1.10;;
72949;SDS011;64868;45.710;9.590;2023-04-03T03:29:51;4.63;;;1.20;;
72949;SDS011;64868;45.710;9.590;2023-04-03T03:32:23;4.75;;;1.20;;
72949;SDS011;64868;45.710;9.590;2023-04-03T03:34:53;2.47;;;0.70;;
72949;SDS011;64868;45.710;9.590;2023-04-03T03:37:23;3.97;;;1.10;;
72949;SDS011;64868;45.710;9.590;2023-04-03T03:39:56;4.50;;;1.23;;
72949;SDS011;64868;45.710;9.590;2023-04-03T03:42:29;3.72;;;0.77;;
72949;SDS011;64868;45.710;9.590;2023-04-03T03:45:02;3.08;;;0.85;;
72949;SDS011;64868;45.710;9.590;2023-04-03T03:47:34;4.05;;;0.93;;
72949;SDS011;64868;45.710;9.590;2023-04-03T03:50:08;3.72;;;1.00;;
72949;SDS011;64868;45.710;9.590;2023-04-03T03:52:40;3.75;;;1.00;;
72949;SDS011;64868;45.710;9.590;2023-04-03T03:55:13;4.40;;;1.00;;
72949;SDS011;64868;45.710;9.590;2023-04-03T03:57:46;4.13;;;1.13;;
72949;SDS011;64868;45.710;9.590;2023-04-03T04:00:16;3.65;;;1.10;;
72949;SDS011;64868;45.710;9.590;2023-04-03T04:02:44;5.32;;;1.20;;
72949;SDS011;64868;45.710;9.590;2023-04-03T04:05:14;3.90;;;0.70;;
72949;SDS011;64868;45.710;9.590;2023-04-03T04:07:47;3.60;;;1.00;;
72949;SDS011;64868;45.710;9.590;2023-04-03T04:10:19;3.22;;;0.85;;
72949;SDS011;64868;45.710;9.590;2023-04-03T04:12:52;3.10;;;1.15;;
72949;SDS011;64868;45.710;9.590;2023-04-03T04:15:20;2.47;;;0.70;;
72949;SDS011;64868;45.710;9.590;2023-04-03T04:17:52;2.40;;;0.70;;
72949;SDS011;64868;45.710;9.590;2023-04-03T04:20:25;3.00;;;0.98;;
72949;SDS011;64868;45.710;9.590;2023-04-03T04:22:57;4.47;;;0.90;;
72949;SDS011;64868;45.710;9.590;2023-04-03T04:25:28;2.40;;;0.80;;
72949;SDS011;64868;45.710;9.590;2023-04-03T04:28:00;3.35;;;0.70;;
72949;SDS011;64868;45.710;9.590;2023-04-03T04:30:31;3.22;;;0.90;;
72949;SDS011;64868;45.710;9.590;2023-04-03T04:33:01;3.97;;;1.00;;
72949;SDS011;64868;45.710;9.590;2023-04-03T04:35:31;2.75;;;0.88;;
72949;SDS011;64868;45.710;9.590;2023-04-03T04:38:03;3.45;;;1.20;;
72949;SDS011;64868;45.710;9.590;2023-04-03T04:40:36;3.60;;;1.20;;
72949;SDS011;64868;45.710;9.590;2023-04-03T04:43:09;4.45;;;1.00;;
72949;SDS011;64868;45.710;9.590;2023-04-03T04:45:41;3.03;;;0.70;;
72949;SDS011;64868;45.710;9.590;2023-04-03T04:48:12;4.03;;;0.90;;
72949;SDS011;64868;45.710;9.590;2023-04-03T04:50:44;3.97;;;0.88;;
72949;SDS011;64868;45.710;9.590;2023-04-03T04:53:15;3.42;;;0.93;;
72949;SDS011;64868;45.710;9.590;2023-04-03T04:58:15;4.10;;;0.82;;
72949;SDS011;64868;45.710;9.590;2023-04-03T05:00:48;3.47;;;0.88;;
72949;SDS011;64868;45.710;9.590;2023-04-03T05:03:27;2.60;;;0.80;;
72949;SDS011;64868;45.710;9.590;2023-04-03T05:05:58;3.30;;;0.98;;
72949;SDS011;64868;45.710;9.590;2023-04-03T05:08:30;4.40;;;0.90;;
72949;SDS011;64868;45.710;9.590;2023-04-03T05:10:58;9.30;;;1.23;;
72949;SDS011;64868;45.710;9.590;2023-04-03T05:13:28;3.75;;;0.90;;
72949;SDS011;64868;45.710;9.590;2023-04-03T05:15:58;3.45;;;1.00;;
72949;SDS011;64868;45.710;9.590;2023-04-03T05:18:28;7.70;;;1.50;;
72949;SDS011;64868;45.710;9.590;2023-04-03T05:20:53;5.78;;;1.13;;
72949;SDS011;64868;45.710;9.590;2023-04-03T05:23:26;2.80;;;0.90;;
72949;SDS011;64868;45.710;9.590;2023-04-03T05:25:56;3.60;;;0.88;;
72949;SDS011;64868;45.710;9.590;2023-04-03T05:28:28;7.55;;;0.88;;
72949;SDS011;64868;45.710;9.590;2023-04-03T05:31:01;4.65;;;1.10;;
72949;SDS011;64868;45.710;9.590;2023-04-03T05:33:34;6.05;;;0.90;;
72949;SDS011;64868;45.710;9.590;2023-04-03T05:36:06;4.35;;;0.80;;
72949;SDS011;64868;45.710;9.590;2023-04-03T05:38:39;3.13;;;0.80;;
72949;SDS011;64868;45.710;9.590;2023-04-03T05:41:12;3.83;;;0.85;;
72949;SDS011;64868;45.710;9.590;2023-04-03T05:43:44;3.08;;;0.80;;
72949;SDS011;64868;45.710;9.590;2023-04-03T05:46:17;4.90;;;0.85;;
72949;SDS011;64868;45.710;9.590;2023-04-03T05:48:46;5.28;;;1.13;;
72949;SDS011;64868;45.710;9.590;2023-04-03T05:51:19;3.70;;;1.00;;
72949;SDS011;64868;45.710;9.590;2023-04-03T05:53:58;3.65;;;0.80;;
72949;SDS011;64868;45.710;9.590;2023-04-03T05:56:32;5.82;;;1.00;;
72949;SDS011;64868;45.710;9.590;2023-04-03T05:59:02;3.83;;;0.85;;
72949;SDS011;64868;45.710;9.590;2023-04-03T06:01:34;6.55;;;1.42;;
72949;SDS011;64868;45.710;9.590;2023-04-03T06:04:07;4.38;;;1.35;;
72949;SDS011;64868;45.710;9.590;2023-04-03T06:06:56;4.80;;;1.30;;
72949;SDS011;64868;45.710;9.590;2023-04-03T06:09:29;5.43;;;1.23;;
72949;SDS011;64868;45.710;9.590;2023-04-03T06:12:01;8.65;;;1.38;;
72949;SDS011;64868;45.710;9.590;2023-04-03T06:14:31;5.18;;;1.30;;
72949;SDS011;64868;45.710;9.590;2023-04-03T06:17:03;4.43;;;1.10;;
72949;SDS011;64868;45.710;9.590;2023-04-03T06:19:36;6.38;;;1.20;;
72949;SDS011;64868;45.710;9.590;2023-04-03T06:22:09;5.32;;;1.13;;
72949;SDS011;64868;45.710;9.590;2023-04-03T06:24:39;6.38;;;1.20;;
72949;SDS011;64868;45.710;9.590;2023-04-03T06:27:09;8.95;;;1.35;;
72949;SDS011;64868;45.710;9.590;2023-04-03T06:29:42;6.60;;;1.30;;
72949;SDS011;64868;45.710;9.590;2023-04-03T06:32:12;5.25;;;1.42;;
72949;SDS011;64868;45.710;9.590;2023-04-03T06:34:44;5.15;;;1.45;;
72949;SDS011;64868;45.710;9.590;2023-04-03T06:37:16;4.10;;;1.35;;
72949;SDS011;64868;45.710;9.590;2023-04-03T06:39:48;7.10;;;1.70;;
72949;SDS011;64868;45.710;9.590;2023-04-03T06:42:18;5.28;;;1.20;;
72949;SDS011;64868;45.710;9.590;2023-04-03T06:44:45;7.30;;;1.30;;
72949;SDS011;64868;45.710;9.590;2023-04-03T06:47:16;3.47;;;1.27;;
72949;SDS011;64868;45.710;9.590;2023-04-03T06:49:48;5.38;;;1.10;;
72949;SDS011;64868;45.710;9.590;2023-04-03T06:52:21;5.97;;;1.50;;
72949;SDS011;64868;45.710;9.590;2023-04-03T06:54:51;4.63;;;1.35;;
72949;SDS011;64868;45.710;9.590;2023-04-03T06:57:24;5.95;;;1.48;;
72949;SDS011;64868;45.710;9.590;2023-04-03T06:59:57;7.03;;;1.00;;
72949;SDS011;64868;45.710;9.590;2023-04-03T07:02:27;3.78;;;1.40;;
72949;SDS011;64868;45.710;9.590;2023-04-03T07:04:59;8.32;;;1.25;;
72949;SDS011;64868;45.710;9.590;2023-04-03T07:07:30;4.43;;;1.20;;
72949;SDS011;64868;45.710;9.590;2023-04-03T07:10:02;10.07;;;1.50;;
72949;SDS011;64868;45.710;9.590;2023-04-03T07:12:37;8.32;;;1.88;;
72949;SDS011;64868;45.710;9.590;2023-04-03T07:15:09;6.85;;;1.30;;
72949;SDS011;64868;45.710;9.590;2023-04-03T07:17:40;5.60;;;1.08;;
72949;SDS011;64868;45.710;9.590;2023-04-03T07:20:10;3.67;;;0.82;;
72949;SDS011;64868;45.710;9.590;2023-04-03T07:22:43;5.38;;;1.20;;
72949;SDS011;64868;45.710;9.590;2023-04-03T07:25:13;6.47;;;1.45;;
72949;SDS011;64868;45.710;9.590;2023-04-03T07:27:43;6.55;;;1.30;;
72949;SDS011;64868;45.710;9.590;2023-04-03T07:30:16;6.57;;;1.70;;
72949;SDS011;64868;45.710;9.590;2023-04-03T07:32:44;3.70;;;1.10;;
72949;SDS011;64868;45.710;9.590;2023-04-03T07:35:14;3.38;;;1.10;;
72949;SDS011;64868;45.710;9.590;2023-04-03T07:37:46;4.65;;;1.48;;
72949;SDS011;64868;45.710;9.590;2023-04-03T07:40:17;5.70;;;1.48;;
72949;SDS011;64868;45.710;9.590;2023-04-03T07:42:49;4.60;;;1.30;;
72949;SDS011;64868;45.710;9.590;2023-04-03T07:45:19;3.67;;;0.82;;
72949;SDS011;64868;45.710;9.590;2023-04-03T07:47:52;4.72;;;1.40;;
72949;SDS011;64868;45.710;9.590;2023-04-03T07:50:25;5.00;;;1.45;;
72949;SDS011;64868;45.710;9.590;2023-04-03T07:52:57;7.15;;;1.90;;
72949;SDS011;64868;45.710;9.590;2023-04-03T07:55:28;5.95;;;1.85;;
72949;SDS011;64868;45.710;9.590;2023-04-03T07:58:01;4.40;;;1.60;;
72949;SDS011;64868;45.710;9.590;2023-04-03T08:00:34;5.60;;;1.77;;
72949;SDS011;64868;45.710;9.590;2023-04-03T08:03:04;4.60;;;1.60;;
72949;SDS011;64868;45.710;9.590;2023-04-03T08:05:39;6.00;;;1.50;;
72949;SDS011;64868;45.710;9.590;2023-04-03T08:08:12;4.63;;;1.65;;
72949;SDS011;64868;45.710;9.590;2023-04-03T08:10:47;5.80;;;1.42;;
72949;SDS011;64868;45.710;9.590;2023-04-03T08:13:21;4.82;;;1.60;;
72949;SDS011;64868;45.710;9.590;2023-04-03T08:15:51;6.05;;;2.00;;
72949;SDS011;64868;45.710;9.590;2023-04-03T08:18:24;4.68;;;1.70;;
72949;SDS011;64868;45.710;9.590;2023-04-03T08:20:58;5.60;;;1.50;;
72949;SDS011;64868;45.710;9.590;2023-04-03T08:23:32;6.38;;;1.60;;
72949;SDS011;64868;45.710;9.590;2023-04-03T08:26:05;6.20;;;1.88;;
72949;SDS011;64868;45.710;9.590;2023-04-03T08:28:45;5.47;;;1.60;;
72949;SDS011;64868;45.710;9.590;2023-04-03T08:31:16;5.82;;;1.50;;
72949;SDS011;64868;45.710;9.590;2023-04-03T08:33:47;5.18;;;1.70;;
72949;SDS011;64868;45.710;9.590;2023-04-03T08:36:18;5.18;;;1.90;;
72949;SDS011;64868;45.710;9.590;2023-04-03T08:38:54;6.50;;;1.73;;
72949;SDS011;64868;45.710;9.590;2023-04-03T08:41:38;4.53;;;1.60;;
72949;SDS011;64868;45.710;9.590;2023-04-03T08:44:17;4.80;;;1.88;;
72949;SDS011;64868;45.710;9.590;2023-04-03T08:47:12;8.55;;;1.67;;
72949;SDS011;64868;45.710;9.590;2023-04-03T08:49:53;5.45;;;1.80;;
72949;SDS011;64868;45.710;9.590;2023-04-03T08:52:38;6.00;;;1.40;;
72949;SDS011;64868;45.710;9.590;2023-04-03T08:58:09;3.70;;;1.20;;
72949;SDS011;64868;45.710;9.590;2023-04-03T09:00:48;3.80;;;1.33;;
72949;SDS011;64868;45.710;9.590;2023-04-03T09:03:22;5.05;;;1.35;;
72949;SDS011;64868;45.710;9.590;2023-04-03T09:05:52;6.25;;;1.88;;
72949;SDS011;64868;45.710;9.590;2023-04-03T09:08:26;4.18;;;1.48;;
72949;SDS011;64868;45.710;9.590;2023-04-03T09:11:09;5.45;;;1.42;;
72949;SDS011;64868;45.710;9.590;2023-04-03T09:13:55;5.13;;;1.23;;
72949;SDS011;64868;45.710;9.590;2023-04-03T09:19:23;8.18;;;1.88;;
72949;SDS011;64868;45.710;9.590;2023-04-03T09:24:48;5.38;;;1.63;;
72949;SDS011;64868;45.710;9.590;2023-04-03T09:27:25;4.90;;;1.92;;
72949;SDS011;64868;45.710;9.590;2023-04-03T09:29:58;7.05;;;1.98;;
72949;SDS011;64868;45.710;9.590;2023-04-03T09:35:48;5.32;;;1.60;;
72949;SDS011;64868;45.710;9.590;2023-04-03T09:38:01;5.45;;;1.70;;
72949;SDS011;64868;45.710;9.590;2023-04-03T09:40:31;5.70;;;1.63;;
72949;SDS011;64868;45.710;9.590;2023-04-03T09:45:56;4.43;;;1.60;;
72949;SDS011;64868;45.710;9.590;2023-04-03T09:49:02;4.35;;;1.60;;
72949;SDS011;64868;45.710;9.590;2023-04-03T09:51:31;4.43;;;1.45;;
72949;SDS011;64868;45.710;9.590;2023-04-03T09:54:01;6.15;;;1.70;;
72949;SDS011;64868;45.710;9.590;2023-04-03T09:57:00;5.00;;;1.58;;
72949;SDS011;64868;45.710;9.590;2023-04-03T09:59:36;8.00;;;1.75;;
72949;SDS011;64868;45.710;9.590;2023-04-03T10:04:49;6.88;;;1.30;;
72949;SDS011;64868;45.710;9.590;2023-04-03T10:07:30;4.57;;;1.40;;
72949;SDS011;64868;45.710;9.590;2023-04-03T10:12:47;3.58;;;1.20;;
72949;SDS011;64868;45.710;9.590;2023-04-03T10:15:33;3.80;;;1.30;;
72949;SDS011;64868;45.710;9.590;2023-04-03T10:24:12;5.60;;;1.80;;
72949;SDS011;64868;45.710;9.590;2023-04-03T10:26:54;4.80;;;1.42;;
72949;SDS011;64868;45.710;9.590;2023-04-03T10:32:30;4.35;;;1.50;;
72949;SDS011;64868;45.710;9.590;2023-04-03T10:37:52;4.20;;;1.55;;
72949;SDS011;64868;45.710;9.590;2023-04-03T10:43:33;7.25;;;2.60;;
72949;SDS011;64868;45.710;9.590;2023-04-03T10:46:16;5.72;;;1.98;;
72949;SDS011;64868;45.710;9.590;2023-04-03T10:54:46;5.93;;;2.55;;
72949;SDS011;64868;45.710;9.590;2023-04-03T10:57:26;5.82;;;2.15;;
72949;SDS011;64868;45.710;9.590;2023-04-03T10:59:59;6.95;;;2.35;;
72949;SDS011;64868;45.710;9.590;2023-04-03T11:02:41;5.90;;;2.20;;
72949;SDS011;64868;45.710;9.590;2023-04-03T11:05:17;5.00;;;2.03;;
72949;SDS011;64868;45.710;9.590;2023-04-03T11:07:56;5.22;;;2.10;;
72949;SDS011;64868;45.710;9.590;2023-04-03T11:10:36;7.75;;;2.30;;
72949;SDS011;64868;45.710;9.590;2023-04-03T11:15:55;5.93;;;1.55;;
72949;SDS011;64868;45.710;9.590;2023-04-03T11:18:47;5.22;;;1.95;;
72949;SDS011;64868;45.710;9.590;2023-04-03T11:21:24;4.80;;;2.10;;
72949;SDS011;64868;45.710;9.590;2023-04-03T11:23:59;5.20;;;1.90;;
72949;SDS011;64868;45.710;9.590;2023-04-03T11:26:35;4.22;;;1.80;;
72949;SDS011;64868;45.710;9.590;2023-04-03T11:29:08;3.92;;;1.75;;
72949;SDS011;64868;45.710;9.590;2023-04-03T11:34:28;5.07;;;1.67;;
72949;SDS011;64868;45.710;9.590;2023-04-03T11:37:03;5.60;;;1.70;;
72949;SDS011;64868;45.710;9.590;2023-04-03T11:39:39;5.10;;;1.30;;
72949;SDS011;64868;45.710;9.590;2023-04-03T11:42:25;6.35;;;1.48;;
72949;SDS011;64868;45.710;9.590;2023-04-03T11:45:24;6.88;;;1.95;;
72949;SDS011;64868;45.710;9.590;2023-04-03T11:50:39;6.00;;;2.22;;
72949;SDS011;64868;45.710;9.590;2023-04-03T11:53:25;4.53;;;1.90;;
72949;SDS011;64868;45.710;9.590;2023-04-03T11:55:58;5.57;;;2.25;;
72949;SDS011;64868;45.710;9.590;2023-04-03T11:58:36;6.32;;;1.88;;
72949;SDS011;64868;45.710;9.590;2023-04-03T12:01:09;5.75;;;2.00;;
72949;SDS011;64868;45.710;9.590;2023-04-03T12:04:03;6.03;;;1.83;;
72949;SDS011;64868;45.710;9.590;2023-04-03T12:06:41;5.00;;;2.35;;
72949;SDS011;64868;45.710;9.590;2023-04-03T12:12:42;8.27;;;2.08;;
72949;SDS011;64868;45.710;9.590;2023-04-03T12:15:38;6.68;;;2.38;;
72949;SDS011;64868;45.710;9.590;2023-04-03T12:21:12;6.65;;;2.20;;
72949;SDS011;64868;45.710;9.590;2023-04-03T12:29:38;6.72;;;2.50;;
72949;SDS011;64868;45.710;9.590;2023-04-03T12:38:20;7.35;;;2.80;;
72949;SDS011;64868;45.710;9.590;2023-04-03T12:46:46;9.27;;;2.90;;
72949;SDS011;64868;45.710;9.590;2023-04-03T12:50:02;6.43;;;2.30;;
72949;SDS011;64868;45.710;9.590;2023-04-03T12:52:19;5.63;;;1.73;;
72949;SDS011;64868;45.710;9.590;2023-04-03T12:55:02;6.18;;;2.38;;
72949;SDS011;64868;45.710;9.590;2023-04-03T12:57:37;7.63;;;2.53;;
72949;SDS011;64868;45.710;9.590;2023-04-03T13:00:29;6.43;;;2.55;;
72949;SDS011;64868;45.710;9.590;2023-04-03T13:03:00;6.45;;;2.42;;
72949;SDS011;64868;45.710;9.590;2023-04-03T13:05:30;7.03;;;2.85;;
72949;SDS011;64868;45.710;9.590;2023-04-03T13:08:04;7.00;;;2.50;;
72949;SDS011;64868;45.710;9.590;2023-04-03T13:10:43;5.07;;;2.30;;
72949;SDS011;64868;45.710;9.590;2023-04-03T13:13:21;8.77;;;2.40;;
72949;SDS011;64868;45.710;9.590;2023-04-03T13:15:53;5.07;;;2.30;;
72949;SDS011;64868;45.710;9.590;2023-04-03T13:18:27;5.18;;;2.30;;
72949;SDS011;64868;45.710;9.590;2023-04-03T13:21:03;5.32;;;2.30;;
72949;SDS011;64868;45.710;9.590;2023-04-03T13:23:37;6.18;;;1.85;;
72949;SDS011;64868;45.710;9.590;2023-04-03T13:26:12;5.63;;;2.38;;
72949;SDS011;64868;45.710;9.590;2023-04-03T13:28:44;5.07;;;2.10;;
72949;SDS011;64868;45.710;9.590;2023-04-03T13:31:28;7.30;;;2.53;;
72949;SDS011;64868;45.710;9.590;2023-04-03T13:34:05;5.00;;;2.38;;
72949;SDS011;64868;45.710;9.590;2023-04-03T13:36:44;7.45;;;2.65;;
72949;SDS011;64868;45.710;9.590;2023-04-03T13:42:20;5.97;;;2.20;;
72949;SDS011;64868;45.710;9.590;2023-04-03T13:45:05;6.25;;;2.00;;
72949;SDS011;64868;45.710;9.590;2023-04-03T13:50:14;5.05;;;2.20;;
72949;SDS011;64868;45.710;9.590;2023-04-03T13:52:47;7.43;;;2.40;;
72949;SDS011;64868;45.710;9.590;2023-04-03T13:55:31;5.22;;;2.03;;
72949;SDS011;64868;45.710;9.590;2023-04-03T13:58:23;6.13;;;2.10;;
72949;SDS011;64868;45.710;9.590;2023-04-03T14:01:14;5.45;;;2.33;;
72949;SDS011;64868;45.710;9.590;2023-04-03T14:03:57;5.95;;;1.88;;
72949;SDS011;64868;45.710;9.590;2023-04-03T14:09:02;4.93;;;2.47;;
72949;SDS011;64868;45.710;9.590;2023-04-03T14:11:34;7.35;;;2.47;;
72949;SDS011;64868;45.710;9.590;2023-04-03T14:14:16;7.43;;;2.42;;
72949;SDS011;64868;45.710;9.590;2023-04-03T14:16:46;7.28;;;2.47;;
72949;SDS011;64868;45.710;9.590;2023-04-03T14:19:32;6.25;;;2.00;;
72949;SDS011;64868;45.710;9.590;2023-04-03T14:22:10;4.95;;;2.00;;
72949;SDS011;64868;45.710;9.590;2023-04-03T14:24:45;5.00;;;2.20;;
72949;SDS011;64868;45.710;9.590;2023-04-03T14:27:23;8.32;;;2.33;;
72949;SDS011;64868;45.710;9.590;2023-04-03T14:29:57;5.78;;;2.30;;
72949;SDS011;64868;45.710;9.590;2023-04-03T14:32:30;11.20;;;3.10;;
72949;SDS011;64868;45.710;9.590;2023-04-03T14:35:04;8.70;;;2.53;;
72949;SDS011;64868;45.710;9.590;2023-04-03T14:37:36;5.80;;;2.20;;
72949;SDS011;64868;45.710;9.590;2023-04-03T14:40:06;9.25;;;2.60;;
72949;SDS011;64868;45.710;9.590;2023-04-03T14:42:39;5.13;;;2.25;;
72949;SDS011;64868;45.710;9.590;2023-04-03T14:45:12;6.32;;;2.88;;
72949;SDS011;64868;45.710;9.590;2023-04-03T14:47:45;6.68;;;2.65;;
72949;SDS011;64868;45.710;9.590;2023-04-03T14:50:16;6.57;;;2.47;;
72949;SDS011;64868;45.710;9.590;2023-04-03T14:52:48;5.07;;;2.22;;
72949;SDS011;64868;45.710;9.590;2023-04-03T14:55:23;6.65;;;2.42;;
72949;SDS011;64868;45.710;9.590;2023-04-03T14:57:52;6.72;;;2.55;;
72949;SDS011;64868;45.710;9.590;2023-04-03T15:00:23;5.38;;;2.67;;
72949;SDS011;64868;45.710;9.590;2023-04-03T15:02:53;7.35;;;2.70;;
72949;SDS011;64868;45.710;9.590;2023-04-03T15:05:21;8.73;;;3.08;;
72949;SDS011;64868;45.710;9.590;2023-04-03T15:07:54;7.82;;;2.95;;
72949;SDS011;64868;45.710;9.590;2023-04-03T15:10:28;10.82;;;2.88;;
72949;SDS011;64868;45.710;9.590;2023-04-03T15:13:01;8.98;;;2.65;;
72949;SDS011;64868;45.710;9.590;2023-04-03T15:15:31;8.30;;;2.97;;
72949;SDS011;64868;45.710;9.590;2023-04-03T15:18:05;8.25;;;2.85;;
72949;SDS011;64868;45.710;9.590;2023-04-03T15:20:37;6.47;;;2.80;;
72949;SDS011;64868;45.710;9.590;2023-04-03T15:23:10;7.50;;;3.17;;
72949;SDS011;64868;45.710;9.590;2023-04-03T15:25:44;6.00;;;2.70;;
72949;SDS011;64868;45.710;9.590;2023-04-03T15:28:32;9.32;;;3.05;;
72949;SDS011;64868;45.710;9.590;2023-04-03T15:31:03;7.70;;;2.90;;
72949;SDS011;64868;45.710;9.590;2023-04-03T15:33:36;7.72;;;2.88;;
72949;SDS011;64868;45.710;9.590;2023-04-03T15:36:06;9.93;;;2.90;;
72949;SDS011;64868;45.710;9.590;2023-04-03T15:38:34;8.10;;;2.53;;
72949;SDS011;64868;45.710;9.590;2023-04-03T15:41:02;10.45;;;3.42;;
72949;SDS011;64868;45.710;9.590;2023-04-03T15:43:34;7.15;;;2.80;;
72949;SDS011;64868;45.710;9.590;2023-04-03T15:46:04;10.60;;;3.08;;
72949;SDS011;64868;45.710;9.590;2023-04-03T15:48:37;7.85;;;3.00;;
72949;SDS011;64868;45.710;9.590;2023-04-03T15:51:07;11.60;;;3.53;;
72949;SDS011;64868;45.710;9.590;2023-04-03T15:53:40;7.63;;;3.00;;
72949;SDS011;64868;45.710;9.590;2023-04-03T15:56:13;7.53;;;3.10;;
72949;SDS011;64868;45.710;9.590;2023-04-03T15:58:38;9.85;;;2.60;;
72949;SDS011;64868;45.710;9.590;2023-04-03T16:01:09;8.20;;;3.50;;
72949;SDS011;64868;45.710;9.590;2023-04-03T16:03:41;9.30;;;2.58;;
72949;SDS011;64868;45.710;9.590;2023-04-03T16:06:15;10.73;;;3.03;;
72949;SDS011;64868;45.710;9.590;2023-04-03T16:08:49;10.88;;;3.35;;
72949;SDS011;64868;45.710;9.590;2023-04-03T16:11:21;11.00;;;3.22;;
72949;SDS011;64868;45.710;9.590;2023-04-03T16:13:51;8.13;;;3.33;;
72949;SDS011;64868;45.710;9.590;2023-04-03T16:16:24;8.15;;;3.13;;
72949;SDS011;64868;45.710;9.590;2023-04-03T16:18:54;9.20;;;3.10;;
72949;SDS011;64868;45.710;9.590;2023-04-03T16:21:25;7.80;;;3.33;;
72949;SDS011;64868;45.710;9.590;2023-04-03T16:26:19;13.38;;;2.58;;
72949;SDS011;64868;45.710;9.590;2023-04-03T16:28:52;6.30;;;2.80;;
72949;SDS011;64868;45.710;9.590;2023-04-03T16:31:23;11.35;;;3.58;;
72949;SDS011;64868;45.710;9.590;2023-04-03T16:33:55;6.95;;;2.78;;
72949;SDS011;64868;45.710;9.590;2023-04-03T16:36:28;8.38;;;3.55;;
72949;SDS011;64868;45.710;9.590;2023-04-03T16:39:00;8.68;;;3.00;;
72949;SDS011;64868;45.710;9.590;2023-04-03T16:41:33;7.95;;;2.30;;
72949;SDS011;64868;45.710;9.590;2023-04-03T16:44:03;11.48;;;3.60;;
72949;SDS011;64868;45.710;9.590;2023-04-03T16:46:36;9.13;;;3.50;;
72949;SDS011;64868;45.710;9.590;2023-04-03T16:49:08;8.10;;;3.45;;
72949;SDS011;64868;45.710;9.590;2023-04-03T16:51:39;11.73;;;3.40;;
72949;SDS011;64868;45.710;9.590;2023-04-03T16:54:09;7.45;;;2.92;;
72949;SDS011;64868;45.710;9.590;2023-04-03T16:56:42;7.10;;;3.00;;
72949;SDS011;64868;45.710;9.590;2023-04-03T16:59:14;7.05;;;2.95;;